sensor_id;sensor_type;location;lat;lon;timestamp;temperature;humidity
22471;DHT22;11402;51.374;6.594;2022-08-04T00:00:13;22.70;99.90
22471;DHT22;11402;51.374;6.594;2022-08-04T00:06:04;22.60;99.90
22471;DHT22;11402;51.374;6.594;2022-08-04T00:08:48;22.30;99.90
22471;DHT22;11402;51.374;6.594;2022-08-04T00:11:22;22.40;99.90
22471;DHT22;11402;51.374;6.594;2022-08-04T00:13:57;22.30;99.90
22471;DHT22;11402;51.374;6.594;2022-08-04T00:16:23;22.40;99.90
22471;DHT22;11402;51.374;6.594;2022-08-04T00:18:56;22.40;99.90
22471;DHT22;11402;51.374;6.594;2022-08-04T00:21:27;22.50;99.90
22471;DHT22;11402;51.374;6.594;2022-08-04T00:23:54;22.50;99.90
22471;DHT22;11402;51.374;6.594;2022-08-04T00:26:21;22.30;99.90
22471;DHT22;11402;51.374;6.594;2022-08-04T00:28:47;22.50;99.90
22471;DHT22;11402;51.374;6.594;2022-08-04T00:31:14;22.60;99.90
22471;DHT22;11402;51.374;6.594;2022-08-04T00:33:44;22.80;99.90
22471;DHT22;11402;51.374;6.594;2022-08-04T00:36:13;23.00;99.90
22471;DHT22;11402;51.374;6.594;2022-08-04T00:38:43;23.30;99.90
22471;DHT22;11402;51.374;6.594;2022-08-04T00:41:18;23.30;99.90
22471;DHT22;11402;51.374;6.594;2022-08-04T00:52:08;23.30;99.90
22471;DHT22;11402;51.374;6.594;2022-08-04T00:57:22;23.20;99.90
22471;DHT22;11402;51.374;6.594;2022-08-04T01:02:38;23.10;99.90
22471;DHT22;11402;51.374;6.594;2022-08-04T01:05:26;23.30;99.90
22471;DHT22;11402;51.374;6.594;2022-08-04T01:08:27;23.30;99.90
22471;DHT22;11402;51.374;6.594;2022-08-04T01:16:51;23.70;99.90
22471;DHT22;11402;51.374;6.594;2022-08-04T01:19:41;23.70;99.90
22471;DHT22;11402;51.374;6.594;2022-08-04T01:25:38;23.70;99.90
22471;DHT22;11402;51.374;6.594;2022-08-04T01:30:42;23.70;99.90
22471;DHT22;11402;51.374;6.594;2022-08-04T01:33:13;23.70;99.90
22471;DHT22;11402;51.374;6.594;2022-08-04T01:35:56;23.70;99.90
22471;DHT22;11402;51.374;6.594;2022-08-04T01:41:01;23.60;99.90
22471;DHT22;11402;51.374;6.594;2022-08-04T01:43:29;23.60;99.90
22471;DHT22;11402;51.374;6.594;2022-08-04T01:46:00;23.50;99.90
22471;DHT22;11402;51.374;6.594;2022-08-04T01:48:26;23.60;99.90
22471;DHT22;11402;51.374;6.594;2022-08-04T01:50:53;23.60;99.90
22471;DHT22;11402;51.374;6.594;2022-08-04T01:53:21;23.30;99.90
22471;DHT22;11402;51.374;6.594;2022-08-04T01:55:51;23.10;99.90
22471;DHT22;11402;51.374;6.594;2022-08-04T01:58:18;23.10;99.90
22471;DHT22;11402;51.374;6.594;2022-08-04T02:01:11;22.70;99.90
22471;DHT22;11402;51.374;6.594;2022-08-04T02:03:38;22.70;99.90
22471;DHT22;11402;51.374;6.594;2022-08-04T02:06:28;22.60;99.90
22471;DHT22;11402;51.374;6.594;2022-08-04T02:09:20;22.70;99.90
22471;DHT22;11402;51.374;6.594;2022-08-04T02:14:44;22.40;99.90
22471;DHT22;11402;51.374;6.594;2022-08-04T02:17:25;22.40;99.90
22471;DHT22;11402;51.374;6.594;2022-08-04T02:20:04;22.80;99.90
22471;DHT22;11402;51.374;6.594;2022-08-04T02:22:33;22.90;99.90
22471;DHT22;11402;51.374;6.594;2022-08-04T02:25:06;22.90;99.90
22471;DHT22;11402;51.374;6.594;2022-08-04T02:27:53;22.60;99.90
22471;DHT22;11402;51.374;6.594;2022-08-04T02:30:20;22.30;99.90
22471;DHT22;11402;51.374;6.594;2022-08-04T02:32:48;22.20;99.90
22471;DHT22;11402;51.374;6.594;2022-08-04T02:35:26;22.10;99.90
22471;DHT22;11402;51.374;6.594;2022-08-04T02:38:03;22.20;99.90
22471;DHT22;11402;51.374;6.594;2022-08-04T02:40:30;22.10;99.90
22471;DHT22;11402;51.374;6.594;2022-08-04T02:42:57;22.30;99.90
22471;DHT22;11402;51.374;6.594;2022-08-04T02:45:24;22.30;99.90
22471;DHT22;11402;51.374;6.594;2022-08-04T02:47:52;22.00;99.90
22471;DHT22;11402;51.374;6.594;2022-08-04T02:50:19;21.90;99.90
22471;DHT22;11402;51.374;6.594;2022-08-04T02:52:48;21.90;99.90
22471;DHT22;11402;51.374;6.594;2022-08-04T02:55:16;21.70;99.90
22471;DHT22;11402;51.374;6.594;2022-08-04T02:57:44;21.70;99.90
22471;DHT22;11402;51.374;6.594;2022-08-04T03:00:12;21.60;99.90
22471;DHT22;11402;51.374;6.594;2022-08-04T03:14:03;21.50;99.90
22471;DHT22;11402;51.374;6.594;2022-08-04T03:19:33;21.40;99.90
22471;DHT22;11402;51.374;6.594;2022-08-04T03:35:39;21.20;99.90
22471;DHT22;11402;51.374;6.594;2022-08-04T03:52:11;21.10;99.90
22471;DHT22;11402;51.374;6.594;2022-08-04T03:55:17;20.90;99.90
22471;DHT22;11402;51.374;6.594;2022-08-04T04:00:53;20.80;99.90
22471;DHT22;11402;51.374;6.594;2022-08-04T04:09:22;20.80;99.90
22471;DHT22;11402;51.374;6.594;2022-08-04T04:12:05;20.70;99.90
22471;DHT22;11402;51.374;6.594;2022-08-04T04:15:18;20.70;99.90
22471;DHT22;11402;51.374;6.594;2022-08-04T04:18:13;20.80;99.90
22471;DHT22;11402;51.374;6.594;2022-08-04T04:26:39;20.80;99.90
22471;DHT22;11402;51.374;6.594;2022-08-04T04:37:42;20.70;99.90
22471;DHT22;11402;51.374;6.594;2022-08-04T04:40:56;20.90;99.90
22471;DHT22;11402;51.374;6.594;2022-08-04T04:46:14;20.90;99.90
22471;DHT22;11402;51.374;6.594;2022-08-04T04:48:57;20.90;99.90
22471;DHT22;11402;51.374;6.594;2022-08-04T04:56:43;20.90;99.90
22471;DHT22;11402;51.374;6.594;2022-08-04T04:59:13;20.90;99.90
22471;DHT22;11402;51.374;6.594;2022-08-04T05:07:54;21.00;99.90
22471;DHT22;11402;51.374;6.594;2022-08-04T05:13:35;21.20;99.90
22471;DHT22;11402;51.374;6.594;2022-08-04T05:16:26;21.40;99.90
22471;DHT22;11402;51.374;6.594;2022-08-04T05:19:32;21.50;99.90
22471;DHT22;11402;51.374;6.594;2022-08-04T05:22:03;21.70;99.90
22471;DHT22;11402;51.374;6.594;2022-08-04T05:24:34;21.80;99.90
22471;DHT22;11402;51.374;6.594;2022-08-04T05:27:07;21.90;99.90
22471;DHT22;11402;51.374;6.594;2022-08-04T05:29:38;22.10;99.90
22471;DHT22;11402;51.374;6.594;2022-08-04T05:32:11;22.10;99.90
22471;DHT22;11402;51.374;6.594;2022-08-04T05:34:44;22.20;99.90
22471;DHT22;11402;51.374;6.594;2022-08-04T05:37:15;22.30;99.90
22471;DHT22;11402;51.374;6.594;2022-08-04T05:42:10;22.80;99.90
22471;DHT22;11402;51.374;6.594;2022-08-04T05:44:37;22.70;99.90
22471;DHT22;11402;51.374;6.594;2022-08-04T05:47:04;22.60;99.90
22471;DHT22;11402;51.374;6.594;2022-08-04T05:49:32;22.60;99.90
22471;DHT22;11402;51.374;6.594;2022-08-04T05:52:02;22.60;99.90
22471;DHT22;11402;51.374;6.594;2022-08-04T05:54:30;22.60;99.90
22471;DHT22;11402;51.374;6.594;2022-08-04T05:56:56;22.70;99.90
22471;DHT22;11402;51.374;6.594;2022-08-04T05:59:24;22.70;99.90
22471;DHT22;11402;51.374;6.594;2022-08-04T06:01:50;22.90;99.90
22471;DHT22;11402;51.374;6.594;2022-08-04T06:04:18;23.10;99.90
22471;DHT22;11402;51.374;6.594;2022-08-04T06:06:47;23.10;99.90
22471;DHT22;11402;51.374;6.594;2022-08-04T06:09:13;23.20;99.90
22471;DHT22;11402;51.374;6.594;2022-08-04T06:11:39;23.30;99.90
22471;DHT22;11402;51.374;6.594;2022-08-04T06:14:08;23.30;99.90
22471;DHT22;11402;51.374;6.594;2022-08-04T06:16:38;23.40;99.90
22471;DHT22;11402;51.374;6.594;2022-08-04T06:19:07;23.50;99.90
22471;DHT22;11402;51.374;6.594;2022-08-04T06:21:34;23.50;99.90
22471;DHT22;11402;51.374;6.594;2022-08-04T06:24:03;23.70;99.90
22471;DHT22;11402;51.374;6.594;2022-08-04T06:26:32;23.70;99.90
22471;DHT22;11402;51.374;6.594;2022-08-04T06:28:59;23.80;99.90
22471;DHT22;11402;51.374;6.594;2022-08-04T06:31:26;23.90;99.90
22471;DHT22;11402;51.374;6.594;2022-08-04T06:34:12;24.00;99.90
22471;DHT22;11402;51.374;6.594;2022-08-04T06:36:40;24.10;99.90
22471;DHT22;11402;51.374;6.594;2022-08-04T06:39:07;24.20;99.90
22471;DHT22;11402;51.374;6.594;2022-08-04T06:41:34;24.20;99.90
22471;DHT22;11402;51.374;6.594;2022-08-04T06:44:06;24.20;99.90
22471;DHT22;11402;51.374;6.594;2022-08-04T06:46:34;24.10;99.90
22471;DHT22;11402;51.374;6.594;2022-08-04T06:49:01;24.10;99.90
22471;DHT22;11402;51.374;6.594;2022-08-04T06:51:30;24.00;99.90
22471;DHT22;11402;51.374;6.594;2022-08-04T06:53:56;24.10;99.90
22471;DHT22;11402;51.374;6.594;2022-08-04T06:56:21;24.10;99.90
22471;DHT22;11402;51.374;6.594;2022-08-04T06:58:49;24.00;99.90
22471;DHT22;11402;51.374;6.594;2022-08-04T07:01:19;24.20;99.90
22471;DHT22;11402;51.374;6.594;2022-08-04T07:03:45;24.00;99.90
22471;DHT22;11402;51.374;6.594;2022-08-04T07:06:12;24.40;99.90
22471;DHT22;11402;51.374;6.594;2022-08-04T07:08:38;24.60;99.90
22471;DHT22;11402;51.374;6.594;2022-08-04T07:11:04;25.10;99.90
22471;DHT22;11402;51.374;6.594;2022-08-04T07:13:31;25.00;99.90
22471;DHT22;11402;51.374;6.594;2022-08-04T07:15:57;25.20;99.90
22471;DHT22;11402;51.374;6.594;2022-08-04T07:18:23;25.30;99.90
22471;DHT22;11402;51.374;6.594;2022-08-04T07:20:50;25.40;99.90
22471;DHT22;11402;51.374;6.594;2022-08-04T07:23:21;24.30;99.90
22471;DHT22;11402;51.374;6.594;2022-08-04T07:25:55;25.60;99.90
22471;DHT22;11402;51.374;6.594;2022-08-04T07:28:23;25.70;99.90
22471;DHT22;11402;51.374;6.594;2022-08-04T07:30:49;25.70;99.90
22471;DHT22;11402;51.374;6.594;2022-08-04T07:33:16;25.60;99.90
22471;DHT22;11402;51.374;6.594;2022-08-04T07:35:42;26.00;99.90
22471;DHT22;11402;51.374;6.594;2022-08-04T07:38:08;25.80;99.90
22471;DHT22;11402;51.374;6.594;2022-08-04T07:40:36;25.90;99.90
22471;DHT22;11402;51.374;6.594;2022-08-04T07:43:03;25.90;99.90
22471;DHT22;11402;51.374;6.594;2022-08-04T07:45:30;26.10;99.90
22471;DHT22;11402;51.374;6.594;2022-08-04T07:47:55;26.20;99.90
22471;DHT22;11402;51.374;6.594;2022-08-04T07:50:22;26.20;99.90
22471;DHT22;11402;51.374;6.594;2022-08-04T07:52:48;26.50;99.90
22471;DHT22;11402;51.374;6.594;2022-08-04T07:55:14;26.80;99.90
22471;DHT22;11402;51.374;6.594;2022-08-04T07:57:40;27.00;99.90
22471;DHT22;11402;51.374;6.594;2022-08-04T08:02:34;27.60;99.90
22471;DHT22;11402;51.374;6.594;2022-08-04T08:05:00;27.50;99.90
22471;DHT22;11402;51.374;6.594;2022-08-04T08:07:26;27.60;99.90
22471;DHT22;11402;51.374;6.594;2022-08-04T08:09:51;27.50;99.90
22471;DHT22;11402;51.374;6.594;2022-08-04T08:12:17;27.00;99.90
22471;DHT22;11402;51.374;6.594;2022-08-04T08:14:44;27.40;99.90
22471;DHT22;11402;51.374;6.594;2022-08-04T08:17:10;27.60;99.90
22471;DHT22;11402;51.374;6.594;2022-08-04T08:19:36;27.70;99.90
22471;DHT22;11402;51.374;6.594;2022-08-04T08:22:03;27.80;99.90
22471;DHT22;11402;51.374;6.594;2022-08-04T08:26:56;27.70;99.90
22471;DHT22;11402;51.374;6.594;2022-08-04T08:29:22;27.70;99.90
22471;DHT22;11402;51.374;6.594;2022-08-04T08:31:48;27.70;99.90
22471;DHT22;11402;51.374;6.594;2022-08-04T08:34:14;27.90;99.90
22471;DHT22;11402;51.374;6.594;2022-08-04T08:36:45;28.10;99.90
22471;DHT22;11402;51.374;6.594;2022-08-04T08:39:23;28.30;99.90
22471;DHT22;11402;51.374;6.594;2022-08-04T08:56:01;27.90;99.90
22471;DHT22;11402;51.374;6.594;2022-08-04T08:59:07;28.00;99.90
22471;DHT22;11402;51.374;6.594;2022-08-04T09:01:57;28.00;99.90
22471;DHT22;11402;51.374;6.594;2022-08-04T09:04:37;27.90;99.90
22471;DHT22;11402;51.374;6.594;2022-08-04T09:10:21;28.10;99.90
22471;DHT22;11402;51.374;6.594;2022-08-04T09:12:55;28.00;99.90
22471;DHT22;11402;51.374;6.594;2022-08-04T09:15:43;28.20;99.90
22471;DHT22;11402;51.374;6.594;2022-08-04T09:18:19;28.40;99.90
22471;DHT22;11402;51.374;6.594;2022-08-04T09:20:47;28.30;99.90
22471;DHT22;11402;51.374;6.594;2022-08-04T09:23:32;28.30;99.90
22471;DHT22;11402;51.374;6.594;2022-08-04T09:26:05;28.50;99.90
22471;DHT22;11402;51.374;6.594;2022-08-04T09:29:14;28.60;99.90
22471;DHT22;11402;51.374;6.594;2022-08-04T09:31:48;28.80;99.90
22471;DHT22;11402;51.374;6.594;2022-08-04T09:34:38;28.90;99.90
22471;DHT22;11402;51.374;6.594;2022-08-04T09:37:16;29.00;99.90
22471;DHT22;11402;51.374;6.594;2022-08-04T09:45:41;29.10;99.90
22471;DHT22;11402;51.374;6.594;2022-08-04T09:48:30;29.00;99.90
22471;DHT22;11402;51.374;6.594;2022-08-04T09:50:58;29.20;99.90
22471;DHT22;11402;51.374;6.594;2022-08-04T09:53:45;29.20;99.90
22471;DHT22;11402;51.374;6.594;2022-08-04T09:59:25;29.30;99.90
22471;DHT22;11402;51.374;6.594;2022-08-04T10:01:57;29.30;99.90
22471;DHT22;11402;51.374;6.594;2022-08-04T10:04:25;29.30;99.90
22471;DHT22;11402;51.374;6.594;2022-08-04T10:07:18;29.60;99.90
22471;DHT22;11402;51.374;6.594;2022-08-04T10:15:39;29.70;99.90
22471;DHT22;11402;51.374;6.594;2022-08-04T10:21:25;29.90;99.90
22471;DHT22;11402;51.374;6.594;2022-08-04T10:26:55;29.80;99.90
22471;DHT22;11402;51.374;6.594;2022-08-04T10:29:45;29.70;99.90
22471;DHT22;11402;51.374;6.594;2022-08-04T10:32:24;29.70;99.90
22471;DHT22;11402;51.374;6.594;2022-08-04T10:35:12;29.70;99.90
22471;DHT22;11402;51.374;6.594;2022-08-04T10:40:20;29.70;99.90
22471;DHT22;11402;51.374;6.594;2022-08-04T10:46:19;30.00;99.90
22471;DHT22;11402;51.374;6.594;2022-08-04T10:51:43;30.00;99.90
22471;DHT22;11402;51.374;6.594;2022-08-04T10:54:13;30.20;99.90
22471;DHT22;11402;51.374;6.594;2022-08-04T10:56:48;30.20;99.90
22471;DHT22;11402;51.374;6.594;2022-08-04T10:59:17;30.50;99.90
22471;DHT22;11402;51.374;6.594;2022-08-04T11:01:48;30.40;99.90
22471;DHT22;11402;51.374;6.594;2022-08-04T11:04:22;30.50;99.90
22471;DHT22;11402;51.374;6.594;2022-08-04T11:06:50;30.40;99.90
22471;DHT22;11402;51.374;6.594;2022-08-04T11:09:17;30.40;99.90
22471;DHT22;11402;51.374;6.594;2022-08-04T11:11:53;30.30;99.90
22471;DHT22;11402;51.374;6.594;2022-08-04T11:14:27;30.30;99.90
22471;DHT22;11402;51.374;6.594;2022-08-04T11:17:04;30.20;99.90
22471;DHT22;11402;51.374;6.594;2022-08-04T11:19:35;30.20;99.90
22471;DHT22;11402;51.374;6.594;2022-08-04T11:22:07;30.20;99.90
22471;DHT22;11402;51.374;6.594;2022-08-04T11:24:49;30.20;99.90
22471;DHT22;11402;51.374;6.594;2022-08-04T11:27:34;30.20;99.90
22471;DHT22;11402;51.374;6.594;2022-08-04T11:30:06;30.20;99.90
22471;DHT22;11402;51.374;6.594;2022-08-04T11:32:41;30.10;99.90
22471;DHT22;11402;51.374;6.594;2022-08-04T11:35:15;30.30;99.90
22471;DHT22;11402;51.374;6.594;2022-08-04T11:43:00;29.80;99.90
22471;DHT22;11402;51.374;6.594;2022-08-04T11:45:40;29.70;99.90
22471;DHT22;11402;51.374;6.594;2022-08-04T11:58:14;29.10;99.90
22471;DHT22;11402;51.374;6.594;2022-08-04T12:00:50;29.20;99.90
22471;DHT22;11402;51.374;6.594;2022-08-04T12:03:38;28.80;99.90
22471;DHT22;11402;51.374;6.594;2022-08-04T12:09:03;29.10;99.90
22471;DHT22;11402;51.374;6.594;2022-08-04T12:22:10;28.50;99.90
22471;DHT22;11402;51.374;6.594;2022-08-04T12:35:10;28.50;99.90
22471;DHT22;11402;51.374;6.594;2022-08-04T12:40:57;28.90;99.90
22471;DHT22;11402;51.374;6.594;2022-08-04T12:48:37;28.80;99.90
22471;DHT22;11402;51.374;6.594;2022-08-04T12:51:06;28.90;99.90
22471;DHT22;11402;51.374;6.594;2022-08-04T12:53:36;29.00;99.90
22471;DHT22;11402;51.374;6.594;2022-08-04T12:56:03;28.80;99.90
22471;DHT22;11402;51.374;6.594;2022-08-04T13:11:03;28.90;99.90
22471;DHT22;11402;51.374;6.594;2022-08-04T13:13:33;28.80;99.90
22471;DHT22;11402;51.374;6.594;2022-08-04T13:23:37;28.80;99.90
22471;DHT22;11402;51.374;6.594;2022-08-04T13:26:09;29.10;99.90
22471;DHT22;11402;51.374;6.594;2022-08-04T13:28:39;29.10;99.90
22471;DHT22;11402;51.374;6.594;2022-08-04T13:31:12;29.10;99.90
22471;DHT22;11402;51.374;6.594;2022-08-04T13:33:40;29.20;99.90
22471;DHT22;11402;51.374;6.594;2022-08-04T13:36:07;29.00;99.90
22471;DHT22;11402;51.374;6.594;2022-08-04T13:38:37;28.90;99.90
22471;DHT22;11402;51.374;6.594;2022-08-04T14:18:59;28.80;99.90
22471;DHT22;11402;51.374;6.594;2022-08-04T14:46:16;28.70;99.90
22471;DHT22;11402;51.374;6.594;2022-08-04T15:23:35;27.90;99.90
22471;DHT22;11402;51.374;6.594;2022-08-04T15:26:02;27.90;99.90
22471;DHT22;11402;51.374;6.594;2022-08-04T15:28:30;27.80;99.90
22471;DHT22;11402;51.374;6.594;2022-08-04T16:02:34;27.50;99.90
22471;DHT22;11402;51.374;6.594;2022-08-04T16:25:51;27.10;99.90
22471;DHT22;11402;51.374;6.594;2022-08-04T16:28:40;27.10;99.90
22471;DHT22;11402;51.374;6.594;2022-08-04T16:36:11;26.90;99.90
22471;DHT22;11402;51.374;6.594;2022-08-04T16:39:02;27.20;99.90
22471;DHT22;11402;51.374;6.594;2022-08-04T16:41:43;26.90;99.90
22471;DHT22;11402;51.374;6.594;2022-08-04T17:51:58;26.60;99.90
22471;DHT22;11402;51.374;6.594;2022-08-04T17:54:33;26.90;99.90
22471;DHT22;11402;51.374;6.594;2022-08-04T17:57:18;26.60;99.90
22471;DHT22;11402;51.374;6.594;2022-08-04T17:59:46;26.50;99.90
22471;DHT22;11402;51.374;6.594;2022-08-04T18:02:16;26.50;99.90
22471;DHT22;11402;51.374;6.594;2022-08-04T18:07:21;26.60;99.90
22471;DHT22;11402;51.374;6.594;2022-08-04T18:12:31;26.50;99.90
22471;DHT22;11402;51.374;6.594;2022-08-04T18:14:58;26.40;99.90
22471;DHT22;11402;51.374;6.594;2022-08-04T18:17:36;26.30;99.90
22471;DHT22;11402;51.374;6.594;2022-08-04T18:20:13;26.30;99.90
22471;DHT22;11402;51.374;6.594;2022-08-04T18:22:43;26.50;99.90
22471;DHT22;11402;51.374;6.594;2022-08-04T18:25:10;26.50;99.90
22471;DHT22;11402;51.374;6.594;2022-08-04T18:27:51;26.40;99.90
22471;DHT22;11402;51.374;6.594;2022-08-04T18:30:18;26.30;99.90
22471;DHT22;11402;51.374;6.594;2022-08-04T18:42:31;25.90;99.90
22471;DHT22;11402;51.374;6.594;2022-08-04T18:49:50;25.90;99.90
22471;DHT22;11402;51.374;6.594;2022-08-04T18:52:16;25.90;99.90
22471;DHT22;11402;51.374;6.594;2022-08-04T20:13:09;24.30;99.90
22471;DHT22;11402;51.374;6.594;2022-08-04T20:18:00;24.10;99.90
22471;DHT22;11402;51.374;6.594;2022-08-04T20:20:26;24.10;99.90
22471;DHT22;11402;51.374;6.594;2022-08-04T20:22:51;24.10;99.90
22471;DHT22;11402;51.374;6.594;2022-08-04T20:25:17;24.40;99.90
22471;DHT22;11402;51.374;6.594;2022-08-04T20:30:10;23.80;99.90
22471;DHT22;11402;51.374;6.594;2022-08-04T20:32:36;23.90;99.90
22471;DHT22;11402;51.374;6.594;2022-08-04T20:35:02;23.40;99.90
22471;DHT22;11402;51.374;6.594;2022-08-04T20:37:27;23.50;99.90
22471;DHT22;11402;51.374;6.594;2022-08-04T20:39:55;23.40;99.90
22471;DHT22;11402;51.374;6.594;2022-08-04T20:42:22;23.50;99.90
22471;DHT22;11402;51.374;6.594;2022-08-04T20:44:47;23.40;99.90
22471;DHT22;11402;51.374;6.594;2022-08-04T20:47:13;23.40;99.90
22471;DHT22;11402;51.374;6.594;2022-08-04T20:49:38;23.30;99.90
22471;DHT22;11402;51.374;6.594;2022-08-04T20:52:04;23.40;99.90
22471;DHT22;11402;51.374;6.594;2022-08-04T20:54:30;23.30;99.90
22471;DHT22;11402;51.374;6.594;2022-08-04T20:56:55;23.30;99.90
22471;DHT22;11402;51.374;6.594;2022-08-04T20:59:23;23.40;99.90
22471;DHT22;11402;51.374;6.594;2022-08-04T21:01:49;23.30;99.90
22471;DHT22;11402;51.374;6.594;2022-08-04T21:04:15;23.20;99.90
22471;DHT22;11402;51.374;6.594;2022-08-04T21:07:00;23.20;99.90
22471;DHT22;11402;51.374;6.594;2022-08-04T21:09:27;23.10;99.90
22471;DHT22;11402;51.374;6.594;2022-08-04T21:11:53;23.10;99.90
22471;DHT22;11402;51.374;6.594;2022-08-04T21:14:19;23.10;99.90
22471;DHT22;11402;51.374;6.594;2022-08-04T21:16:44;23.00;99.90
22471;DHT22;11402;51.374;6.594;2022-08-04T21:19:10;23.00;99.90
22471;DHT22;11402;51.374;6.594;2022-08-04T21:21:37;23.00;99.90
22471;DHT22;11402;51.374;6.594;2022-08-04T21:24:03;23.10;99.90
22471;DHT22;11402;51.374;6.594;2022-08-04T21:26:28;23.00;99.90
22471;DHT22;11402;51.374;6.594;2022-08-04T21:28:54;22.90;99.90
22471;DHT22;11402;51.374;6.594;2022-08-04T21:31:19;22.90;99.90
22471;DHT22;11402;51.374;6.594;2022-08-04T21:33:45;22.90;99.90
22471;DHT22;11402;51.374;6.594;2022-08-04T21:36:11;22.90;99.90
22471;DHT22;11402;51.374;6.594;2022-08-04T21:38:36;22.90;99.90
22471;DHT22;11402;51.374;6.594;2022-08-04T21:41:02;22.90;99.90
22471;DHT22;11402;51.374;6.594;2022-08-04T21:43:28;23.10;99.90
22471;DHT22;11402;51.374;6.594;2022-08-04T21:45:55;22.90;99.90
22471;DHT22;11402;51.374;6.594;2022-08-04T21:48:21;22.70;99.90
22471;DHT22;11402;51.374;6.594;2022-08-04T21:50:46;22.70;99.90
22471;DHT22;11402;51.374;6.594;2022-08-04T21:53:12;22.70;99.90
22471;DHT22;11402;51.374;6.594;2022-08-04T21:55:38;22.80;99.90
22471;DHT22;11402;51.374;6.594;2022-08-04T21:58:04;22.70;99.90
22471;DHT22;11402;51.374;6.594;2022-08-04T22:00:29;22.70;99.90
22471;DHT22;11402;51.374;6.594;2022-08-04T22:02:55;21.80;99.90
22471;DHT22;11402;51.374;6.594;2022-08-04T22:05:22;21.50;99.90
22471;DHT22;11402;51.374;6.594;2022-08-04T22:07:48;21.10;99.90
22471;DHT22;11402;51.374;6.594;2022-08-04T22:10:13;20.80;99.90
22471;DHT22;11402;51.374;6.594;2022-08-04T22:12:39;20.70;99.90
22471;DHT22;11402;51.374;6.594;2022-08-04T22:15:05;20.70;99.90
22471;DHT22;11402;51.374;6.594;2022-08-04T22:17:32;20.60;99.90
22471;DHT22;11402;51.374;6.594;2022-08-04T22:19:58;20.90;99.90
22471;DHT22;11402;51.374;6.594;2022-08-04T22:22:24;20.70;99.90
22471;DHT22;11402;51.374;6.594;2022-08-04T22:24:50;20.50;99.90
22471;DHT22;11402;51.374;6.594;2022-08-04T22:27:15;20.00;99.90
22471;DHT22;11402;51.374;6.594;2022-08-04T22:30:04;19.90;99.90
22471;DHT22;11402;51.374;6.594;2022-08-04T22:32:30;20.10;99.90
22471;DHT22;11402;51.374;6.594;2022-08-04T22:34:56;20.10;99.90
22471;DHT22;11402;51.374;6.594;2022-08-04T22:37:21;19.90;99.90
22471;DHT22;11402;51.374;6.594;2022-08-04T22:39:47;19.90;99.90
22471;DHT22;11402;51.374;6.594;2022-08-04T22:42:14;20.10;99.90
22471;DHT22;11402;51.374;6.594;2022-08-04T22:44:41;20.00;99.90
22471;DHT22;11402;51.374;6.594;2022-08-04T22:47:09;20.00;99.90
22471;DHT22;11402;51.374;6.594;2022-08-04T22:49:38;20.00;99.90
22471;DHT22;11402;51.374;6.594;2022-08-04T22:52:04;20.30;99.90
22471;DHT22;11402;51.374;6.594;2022-08-04T22:54:30;20.20;99.90
22471;DHT22;11402;51.374;6.594;2022-08-04T22:56:56;19.90;99.90
22471;DHT22;11402;51.374;6.594;2022-08-04T22:59:22;19.60;99.90
22471;DHT22;11402;51.374;6.594;2022-08-04T23:01:48;19.40;99.90
22471;DHT22;11402;51.374;6.594;2022-08-04T23:04:13;19.30;99.90
22471;DHT22;11402;51.374;6.594;2022-08-04T23:06:39;19.60;99.90
22471;DHT22;11402;51.374;6.594;2022-08-04T23:09:05;19.90;99.90
22471;DHT22;11402;51.374;6.594;2022-08-04T23:11:30;19.80;99.90
22471;DHT22;11402;51.374;6.594;2022-08-04T23:13:56;19.80;99.90
22471;DHT22;11402;51.374;6.594;2022-08-04T23:16:22;20.00;99.90
22471;DHT22;11402;51.374;6.594;2022-08-04T23:18:47;19.90;99.90
22471;DHT22;11402;51.374;6.594;2022-08-04T23:21:13;20.00;99.90
22471;DHT22;11402;51.374;6.594;2022-08-04T23:23:38;19.80;99.90
22471;DHT22;11402;51.374;6.594;2022-08-04T23:26:11;19.60;99.90
22471;DHT22;11402;51.374;6.594;2022-08-04T23:28:37;19.40;99.90
22471;DHT22;11402;51.374;6.594;2022-08-04T23:31:03;19.40;99.90
22471;DHT22;11402;51.374;6.594;2022-08-04T23:33:28;19.30;99.90
22471;DHT22;11402;51.374;6.594;2022-08-04T23:35:54;19.60;99.90
22471;DHT22;11402;51.374;6.594;2022-08-04T23:38:20;19.60;99.90
22471;DHT22;11402;51.374;6.594;2022-08-04T23:40:48;19.30;99.90
22471;DHT22;11402;51.374;6.594;2022-08-04T23:43:14;19.50;99.90
22471;DHT22;11402;51.374;6.594;2022-08-04T23:45:39;19.20;99.90
22471;DHT22;11402;51.374;6.594;2022-08-04T23:48:05;19.60;99.90
22471;DHT22;11402;51.374;6.594;2022-08-04T23:50:31;19.50;99.90
22471;DHT22;11402;51.374;6.594;2022-08-04T23:52:56;19.40;99.90
22471;DHT22;11402;51.374;6.594;2022-08-04T23:55:22;19.60;99.90
22471;DHT22;11402;51.374;6.594;2022-08-04T23:57:54;19.80;99.90
